Skip Navigation Links
NOAA logo - Click to go to the NOAA homepage
NOAA's National Weather Service
Alaska Aviation Weather Unit
  NWS logo - Click to go to the NWS homepage
Left Navbar Graphic     23 AKDT = 07 GMT

   
NOAA is celebrating 200 years of science, service, and stewardship. Visit the NOAA 200th celebration Web site to learn more.
USA.gov is the U.S. Government's official Web portal to all Federal, state and local government Web resources and services.
Facebook
NWS on Facebook

Important Change Regarding the AAWU Web Presence

 

Over the last several months, the AAWU has been working to navigate its webpages to a nationally supported server. Security, as well as other needs, have necessitated the change.  In the process, we have made an effort to enhance the functionality of our website, as well as some of our products. As of June 20, 2017, aawu.arh.noaa.gov will be discontinued. The new AAWU web address is weather.gov/aawu. It is now live and will run in-parallel with the old site until it is discontinued. Please send any feedback or questions regarding the new webpages to nws.ar.aawu.webauthors@noaa.gov.  Thank you for your patience during this time of transition.
AAWU Home :: Display TAF Add Bookmark
TAF PATA 240532Z 2406/2506 20008KT P6SM SCT060 BKN080
     FM241800 12011G18KT P6SM BKN050 BKN100
     FM250000 20007KT P6SM OVC050=

METAR PATA 240152Z VRB05KT 10SM BKN060 BKN090 13/M01 A2990 RMK AO2 SLP128 T01331006= METAR PATA 240252Z VRB05KT 10SM SCT065 BKN090 12/01 A2990 RMK AO2 SLP128 T01220006 58002= METAR PATA 240352Z VRB03KT 10SM OVC090 12/00 A2989 RMK AO2 SLP125 T01220000= METAR PATA 240452Z 20008KT 10SM SCT060 BKN080 11/01 A2990 RMK AO2 SLP126 T01110011= METAR PATA 240552Z AUTO 11004KT 10SM OVC060 11/02 A2990 RMK AO2 RAB34E44 SLP127 P0000 60000 T01060017 10139 20100 55001 TSNO= METAR PATA 240652Z AUTO 00000KT 10SM BKN090 09/04 A2990 RMK AO2 SLP128 T00890044 TSNO=
 Alaska TAF Map

NOAA's National Weather Service
Alaska Aviation Weather Unit
6930 Sand Lake Road
Anchorage, AK 99502-1845
Disclaimer
Credits
Glossary
Privacy Policy
About Us
Career Opportunities
Contact AAWU Internet Services Site last modified: April, 17th 2012